Time;durP1;ratioP1;P1;durP2;ratioP2;P2;SDS_P1;SDS_P2;PMS_P1;PMS_P2;Temp;Humidity;BMP_temperature;BMP_pressure;BME280_temperature;BME280_humidity;BME280_pressure;Samples;Min_cycle;Max_cycle;Signal;HPM_P1;HPM_P2
2021/09/04 00:00:53;;;;;;;9.20;6.95;;;;;;;13.63;96.43;98103.25;4958851;28;20117;-62
2021/09/04 00:03:18;;;;;;;11.18;6.45;;;;;;;13.60;97.05;98096.41;4959673;28;20082;-62
2021/09/04 00:05:43;;;;;;;11.43;6.65;;;;;;;13.53;96.42;98092.41;4962664;28;20468;-60
2021/09/04 00:08:09;;;;;;;13.00;7.07;;;;;;;13.38;97.34;98093.19;4958154;28;20059;-63
2021/09/04 00:10:34;;;;;;;11.68;6.32;;;;;;;13.44;98.03;98093.72;4959746;28;20031;-61
2021/09/04 00:13:00;;;;;;;11.45;6.38;;;;;;;13.78;96.24;98091.13;4958284;28;20019;-62
2021/09/04 00:15:26;;;;;;;11.18;6.35;;;;;;;13.64;95.34;98084.00;4959391;28;20057;-63
2021/09/04 00:17:53;;;;;;;11.80;6.70;;;;;;;13.38;96.35;98093.19;4959263;28;20019;-64
2021/09/04 00:20:18;;;;;;;8.38;6.20;;;;;;;13.47;95.38;98097.94;4954062;28;20114;-61
2021/09/04 00:22:46;;;;;;;8.77;6.25;;;;;;;13.44;95.03;98098.97;4962514;28;20141;-61
2021/09/04 00:25:12;;;;;;;8.70;5.93;;;;;;;13.33;95.38;98090.81;4958632;28;20031;-61
2021/09/04 00:27:37;;;;;;;9.65;6.10;;;;;;;12.95;96.10;98096.16;4958258;28;20403;-60
2021/09/04 00:30:03;;;;;;;10.60;6.28;;;;;;;12.76;96.47;98093.59;4960717;28;20027;-63
2021/09/04 00:32:29;;;;;;;12.38;6.03;;;;;;;13.03;95.72;98082.69;4960323;28;20412;-64
2021/09/04 00:34:54;;;;;;;9.60;6.38;;;;;;;13.21;94.21;98087.00;4963470;28;20493;-62
2021/09/04 00:37:19;;;;;;;10.30;6.05;;;;;;;12.96;94.98;98089.13;4962173;28;20035;-63
2021/09/04 00:39:45;;;;;;;8.20;5.55;;;;;;;13.17;95.72;98077.59;4963164;28;20058;-64
2021/09/04 00:42:12;;;;;;;8.13;5.80;;;;;;;13.06;94.94;98074.69;4961572;28;20050;-61
2021/09/04 00:44:37;;;;;;;11.88;6.55;;;;;;;12.81;96.06;98081.13;4961588;28;20038;-62
2021/09/04 00:47:05;;;;;;;10.57;6.05;;;;;;;12.52;97.79;98083.38;4960939;28;20039;-62
2021/09/04 00:49:32;;;;;;;11.85;5.88;;;;;;;12.82;97.16;98081.97;4961974;28;20488;-61
2021/09/04 00:51:57;;;;;;;11.82;6.18;;;;;;;12.56;97.12;98080.63;4960684;28;20112;-63
2021/09/04 00:54:23;;;;;;;12.00;6.53;;;;;;;12.62;96.35;98075.09;4959293;28;20431;-63
2021/09/04 00:56:48;;;;;;;11.23;6.15;;;;;;;12.43;97.07;98082.97;4961933;28;20118;-63
2021/09/04 00:59:14;;;;;;;9.75;5.80;;;;;;;12.82;94.70;98080.19;4963066;28;20031;-63
2021/09/04 01:01:39;;;;;;;8.10;5.72;;;;;;;12.99;94.34;98075.91;4959342;28;20039;-64
2021/09/04 01:04:05;;;;;;;13.23;6.00;;;;;;;12.98;96.02;98079.47;4960578;28;20885;-62
2021/09/04 01:06:30;;;;;;;7.85;5.40;;;;;;;12.97;95.41;98086.44;4959189;28;20052;-65
2021/09/04 01:08:56;;;;;;;7.82;5.80;;;;;;;12.81;94.24;98083.75;4957676;28;20038;-61
2021/09/04 01:11:22;;;;;;;9.88;5.80;;;;;;;12.72;95.62;98084.19;4963594;28;20035;-61
2021/09/04 01:13:48;;;;;;;13.23;6.00;;;;;;;12.69;95.28;98079.94;4959724;28;20015;-63
2021/09/04 01:16:13;;;;;;;10.38;6.03;;;;;;;12.54;94.80;98086.75;4961347;28;20038;-63
2021/09/04 01:18:38;;;;;;;10.15;6.32;;;;;;;12.52;94.43;98080.75;4960366;28;20156;-62
2021/09/04 01:21:07;;;;;;;11.23;6.18;;;;;;;12.58;94.08;98078.78;4961214;28;20047;-63
2021/09/04 01:23:32;;;;;;;9.60;6.03;;;;;;;12.42;95.76;98087.34;4961476;28;20070;-64
2021/09/04 01:26:06;;;;;;;10.88;6.20;;;;;;;12.33;95.13;98087.75;4961328;28;20395;-63
2021/09/04 01:28:32;;;;;;;9.27;6.07;;;;;;;12.31;94.83;98079.16;4960539;28;20035;-63
2021/09/04 01:30:57;;;;;;;10.73;6.47;;;;;;;12.29;95.03;98081.81;4958930;28;20039;-61
2021/09/04 01:33:23;;;;;;;10.38;6.03;;;;;;;12.14;95.87;98078.16;4959474;28;20038;-65
2021/09/04 01:35:48;;;;;;;11.30;6.10;;;;;;;11.85;98.10;98076.00;4959703;28;20546;-63
2021/09/04 01:38:14;;;;;;;9.23;5.85;;;;;;;12.10;97.55;98076.59;4959948;28;20118;-63
2021/09/04 01:40:42;;;;;;;8.85;5.75;;;;;;;12.19;97.66;98074.50;4957917;28;20027;-62
2021/09/04 01:43:07;;;;;;;9.15;5.60;;;;;;;12.19;97.67;98079.72;4961489;28;20400;-65
2021/09/04 01:45:32;;;;;;;8.80;6.50;;;;;;;11.83;99.77;98073.44;4959537;28;20042;-64
2021/09/04 01:47:58;;;;;;;11.63;6.32;;;;;;;11.83;99.49;98068.22;4967320;28;20059;-61
2021/09/04 01:50:24;;;;;;;9.95;6.00;;;;;;;11.97;98.92;98069.41;4959711;28;20050;-64
2021/09/04 01:52:49;;;;;;;9.38;6.00;;;;;;;12.07;98.32;98071.50;4978132;28;20224;-62
2021/09/04 01:55:17;;;;;;;8.18;5.63;;;;;;;12.18;97.90;98068.41;4963988;28;20514;-63
2021/09/04 01:57:42;;;;;;;8.25;5.57;;;;;;;12.30;96.78;98059.16;4962998;28;20031;-62
2021/09/04 02:00:10;;;;;;;9.10;5.70;;;;;;;12.31;98.04;98060.84;4964186;28;20026;-62
2021/09/04 02:02:36;;;;;;;7.63;5.63;;;;;;;12.07;97.36;98068.06;4962975;28;20023;-61
2021/09/04 02:05:01;;;;;;;12.13;6.10;;;;;;;12.07;98.56;98061.06;4966157;28;20082;-61
2021/09/04 02:07:29;;;;;;;9.70;5.80;;;;;;;12.23;96.23;98062.97;4964715;28;20041;-62
2021/09/04 02:09:57;;;;;;;9.90;6.10;;;;;;;12.07;97.32;98050.59;4962414;28;20059;-61
2021/09/04 02:12:22;;;;;;;11.05;5.78;;;;;;;11.85;98.83;98055.09;4962971;28;20580;-62
2021/09/04 02:14:47;;;;;;;9.38;5.80;;;;;;;12.00;98.22;98051.78;4960262;28;20158;-60
2021/09/04 02:17:13;;;;;;;8.63;5.80;;;;;;;11.84;98.84;98050.78;4962852;28;20039;-62
2021/09/04 02:19:38;;;;;;;14.07;5.45;;;;;;;12.28;97.20;98047.94;4959299;28;20057;-60
2021/09/04 02:22:04;;;;;;;10.35;5.93;;;;;;;12.37;97.43;98044.88;4961011;28;20047;-63
2021/09/04 02:24:29;;;;;;;10.57;5.95;;;;;;;12.02;97.07;98042.16;4965970;28;20035;-62
2021/09/04 02:26:56;;;;;;;8.43;5.70;;;;;;;12.01;97.72;98047.44;4964146;28;20039;-62
2021/09/04 02:29:21;;;;;;;10.60;5.50;;;;;;;12.28;96.21;98037.47;4963004;28;20818;-60
2021/09/04 02:31:46;;;;;;;8.98;5.35;;;;;;;12.00;96.67;98043.94;4962930;28;20046;-61
2021/09/04 02:34:12;;;;;;;7.50;5.50;;;;;;;11.85;98.45;98042.03;4962895;28;20063;-60
2021/09/04 02:36:38;;;;;;;8.50;5.45;;;;;;;11.95;96.27;98041.56;4964832;28;20123;-60
2021/09/04 02:39:03;;;;;;;11.15;5.70;;;;;;;12.04;97.06;98039.44;4962777;28;20033;-63
2021/09/04 02:41:29;;;;;;;7.82;5.10;;;;;;;12.18;98.35;98041.41;4964380;28;20050;-60
2021/09/04 02:43:54;;;;;;;8.52;5.10;;;;;;;12.21;95.74;98031.66;4959280;28;20027;-62
2021/09/04 02:46:19;;;;;;;7.30;5.38;;;;;;;11.58;96.63;98040.59;4960680;28;20039;-61
2021/09/04 02:48:45;;;;;;;9.43;5.75;;;;;;;11.64;97.42;98046.47;4964111;28;20382;-62
2021/09/04 02:51:10;;;;;;;7.47;5.15;;;;;;;11.85;96.90;98052.47;4961078;28;20043;-63
2021/09/04 02:53:37;;;;;;;9.65;5.80;;;;;;;11.80;96.36;98047.47;4964718;28;20057;-62
2021/09/04 02:56:02;;;;;;;8.10;5.28;;;;;;;12.15;96.77;98050.25;4961544;28;20038;-61
2021/09/04 02:58:28;;;;;;;9.82;5.68;;;;;;;11.70;96.32;98041.78;4959707;28;20035;-60
2021/09/04 03:00:53;;;;;;;9.73;5.20;;;;;;;11.97;95.49;98044.13;4961562;28;20038;-61
2021/09/04 03:03:18;;;;;;;7.28;4.85;;;;;;;12.03;96.96;98043.81;4961723;28;20118;-60
2021/09/04 03:05:45;;;;;;;7.80;5.35;;;;;;;12.00;94.26;98038.72;4961865;28;20041;-60
2021/09/04 03:08:10;;;;;;;9.85;5.53;;;;;;;11.84;94.07;98049.03;4960879;28;20031;-61
2021/09/04 03:10:35;;;;;;;7.65;4.90;;;;;;;12.10;95.68;98042.63;4963969;28;20042;-62
2021/09/04 03:13:01;;;;;;;7.97;4.90;;;;;;;12.11;94.64;98040.84;4961236;28;20407;-63
2021/09/04 03:15:26;;;;;;;10.32;5.50;;;;;;;11.92;95.65;98041.69;4960324;28;20038;-60
2021/09/04 03:17:51;;;;;;;7.55;5.00;;;;;;;11.65;94.95;98038.56;4963587;28;20030;-63
2021/09/04 03:20:17;;;;;;;7.53;5.32;;;;;;;11.73;94.85;98036.44;4960798;28;20062;-60
2021/09/04 03:22:42;;;;;;;7.38;4.85;;;;;;;12.14;94.97;98041.56;4965329;28;20114;-63
2021/09/04 03:25:08;;;;;;;9.50;5.80;;;;;;;11.74;92.60;98035.53;4962643;28;20173;-64
2021/09/04 03:27:34;;;;;;;8.80;5.60;;;;;;;11.55;95.95;98043.31;4962273;28;20182;-63
2021/09/04 03:29:59;;;;;;;12.23;6.00;;;;;;;11.33;94.77;98037.34;4963295;28;20419;-62
2021/09/04 03:32:25;;;;;;;8.82;5.68;;;;;;;11.40;93.79;98041.41;4978167;28;20047;-61
2021/09/04 03:34:52;;;;;;;10.38;5.35;;;;;;;11.64;96.21;98036.00;4970601;28;20022;-63
2021/09/04 03:37:18;;;;;;;8.43;5.70;;;;;;;11.56;94.67;98045.03;4963144;28;20043;-63
2021/09/04 03:39:44;;;;;;;9.48;5.70;;;;;;;11.44;93.42;98036.88;4963329;28;20510;-61
2021/09/04 03:42:09;;;;;;;8.93;5.10;;;;;;;11.94;95.34;98039.00;4963626;28;20070;-61
2021/09/04 03:44:34;;;;;;;7.85;5.82;;;;;;;11.41;94.15;98040.47;4962068;28;20069;-63
2021/09/04 03:47:00;;;;;;;8.27;5.40;;;;;;;11.23;94.98;98038.66;4961195;28;20049;-61
2021/09/04 03:49:25;;;;;;;9.20;5.82;;;;;;;11.10;95.45;98040.94;4959228;28;20027;-63
2021/09/04 03:51:50;;;;;;;9.85;5.97;;;;;;;11.26;95.54;98041.13;4963290;28;20050;-61
2021/09/04 03:54:16;;;;;;;7.80;5.70;;;;;;;11.25;95.79;98040.31;4963524;28;20050;-59
2021/09/04 03:56:41;;;;;;;11.07;5.50;;;;;;;11.12;95.85;98049.53;4960097;28;20972;-62
2021/09/04 03:59:07;;;;;;;8.05;5.45;;;;;;;11.19;95.59;98043.16;4963679;28;20776;-60
2021/09/04 04:01:33;;;;;;;7.70;5.53;;;;;;;11.45;97.27;98038.56;4965655;28;20114;-62
2021/09/04 04:03:58;;;;;;;9.32;5.43;;;;;;;11.54;94.68;98041.66;4965363;28;20408;-59
2021/09/04 04:06:23;;;;;;;6.78;5.13;;;;;;;11.44;96.01;98042.94;4959654;28;20041;-63
2021/09/04 04:08:49;;;;;;;8.70;5.50;;;;;;;11.40;93.97;98040.56;4958956;28;20027;-60
2021/09/04 04:11:14;;;;;;;8.10;5.40;;;;;;;11.15;94.44;98044.22;4960615;28;20090;-61
2021/09/04 04:13:40;;;;;;;8.10;5.97;;;;;;;11.10;94.35;98046.16;4961763;28;20141;-61
2021/09/04 04:16:06;;;;;;;9.57;5.90;;;;;;;11.08;94.71;98055.81;4958503;28;20423;-61
2021/09/04 04:18:33;;;;;;;8.35;5.55;;;;;;;11.40;94.69;98040.56;4960777;28;20408;-62
2021/09/04 04:20:59;;;;;;;8.90;5.50;;;;;;;11.43;95.38;98046.47;4960141;28;20054;-62
2021/09/04 04:23:24;;;;;;;11.00;5.70;;;;;;;11.47;92.85;98050.66;4960575;28;20022;-61
2021/09/04 04:25:50;;;;;;;9.18;5.72;;;;;;;11.13;94.82;98052.09;4960053;28;20214;-61
2021/09/04 04:28:17;;;;;;;11.55;5.60;;;;;;;11.00;95.28;98051.78;4960957;28;20061;-62
2021/09/04 04:30:42;;;;;;;11.15;6.50;;;;;;;10.89;94.48;98053.97;4961617;28;20535;-62
2021/09/04 04:33:08;;;;;;;8.93;5.40;;;;;;;11.04;95.71;98051.66;4961633;28;20023;-62
2021/09/04 04:35:33;;;;;;;8.55;5.88;;;;;;;10.77;95.46;98054.47;4959992;28;20401;-60
2021/09/04 04:37:58;;;;;;;13.88;6.20;;;;;;;10.53;97.07;98051.97;4960981;28;20054;-59
2021/09/04 04:40:24;;;;;;;9.00;5.90;;;;;;;10.60;97.04;98044.72;4961167;28;20043;-60
2021/09/04 04:42:49;;;;;;;8.65;6.13;;;;;;;10.67;96.16;98048.78;4960051;28;20038;-60
2021/09/04 04:45:14;;;;;;;10.30;6.25;;;;;;;10.68;96.06;98044.41;4961206;28;20042;-63
2021/09/04 04:47:40;;;;;;;8.25;5.88;;;;;;;10.87;95.51;98045.38;4960806;28;20038;-60
2021/09/04 04:50:05;;;;;;;11.75;6.05;;;;;;;10.70;96.92;98047.84;4961793;28;20039;-63
2021/09/04 04:52:31;;;;;;;9.32;5.70;;;;;;;10.85;97.93;98043.75;4961004;28;20488;-60
2021/09/04 04:54:57;;;;;;;7.97;5.47;;;;;;;10.97;96.02;98051.91;4962333;28;20026;-60
2021/09/04 04:57:22;;;;;;;7.35;5.00;;;;;;;11.63;95.24;98053.44;4959358;28;20039;-62
2021/09/04 04:59:47;;;;;;;7.55;5.07;;;;;;;11.31;95.09;98060.06;4961095;28;20027;-61
2021/09/04 05:02:12;;;;;;;10.30;6.00;;;;;;;11.38;93.08;98057.13;4960172;28;20082;-62
2021/09/04 05:04:38;;;;;;;9.70;5.68;;;;;;;11.46;95.66;98054.19;4962899;28;20038;-60
2021/09/04 05:07:03;;;;;;;12.13;5.85;;;;;;;11.38;91.91;98062.34;4961492;28;20192;-61
2021/09/04 05:09:28;;;;;;;10.13;6.20;;;;;;;11.29;92.96;98059.31;4958733;28;20089;-61
2021/09/04 05:11:54;;;;;;;8.77;5.60;;;;;;;11.22;95.79;98061.31;4960585;28;20519;-61
2021/09/04 05:14:19;;;;;;;16.65;6.38;;;;;;;11.15;92.96;98059.88;4958231;28;20066;-62
2021/09/04 05:16:45;;;;;;;10.55;5.80;;;;;;;11.40;94.59;98053.63;4969306;28;20577;-61
2021/09/04 05:19:11;;;;;;;7.20;5.28;;;;;;;11.93;91.81;98053.03;4960299;28;20125;-63
2021/09/04 05:21:36;;;;;;;9.95;5.10;;;;;;;11.81;93.54;98053.53;4958691;28;20351;-62
2021/09/04 05:24:01;;;;;;;8.00;5.30;;;;;;;12.53;88.71;98053.69;4958549;28;20031;-63
2021/09/04 05:26:27;;;;;;;9.00;4.97;;;;;;;13.78;89.61;98044.78;4958172;28;20035;-62
2021/09/04 05:28:52;;;;;;;8.77;5.93;;;;;;;15.84;96.53;98053.19;4965951;28;20105;-63
2021/09/04 05:31:17;;;;;;;6.72;5.13;;;;;;;16.47;85.73;98054.53;4962553;28;20132;-61
2021/09/04 05:33:43;;;;;;;8.43;4.78;;;;;;;18.19;79.22;98050.00;4963322;28;20114;-62
2021/09/04 05:36:08;;;;;;;7.32;4.53;;;;;;;18.50;74.26;98053.91;4963382;28;20039;-64
2021/09/04 05:38:35;;;;;;;8.68;4.53;;;;;;;19.23;69.11;98056.56;4962439;28;20117;-62
2021/09/04 05:41:01;;;;;;;6.80;4.40;;;;;;;19.20;65.50;98059.44;4962176;28;20031;-61
2021/09/04 05:43:26;;;;;;;6.20;4.25;;;;;;;17.78;67.15;98056.38;4962448;28;20031;-62
2021/09/04 05:45:52;;;;;;;11.43;4.70;;;;;;;15.44;71.13;98063.50;4964787;28;20035;-64
2021/09/04 05:48:17;;;;;;;7.00;4.72;;;;;;;16.03;70.85;98063.44;4964560;28;20078;-62
2021/09/04 05:50:42;;;;;;;6.85;4.57;;;;;;;15.98;71.28;98058.47;4963418;28;20432;-61
2021/09/04 05:53:08;;;;;;;7.50;4.90;;;;;;;14.79;75.00;98067.25;4965703;28;20477;-62
2021/09/04 05:55:33;;;;;;;5.93;4.22;;;;;;;15.26;74.47;98064.59;4964308;28;20083;-63
2021/09/04 05:57:58;;;;;;;6.32;4.78;;;;;;;15.10;74.73;98068.09;4959516;28;20032;-63
2021/09/04 06:00:24;;;;;;;8.70;4.97;;;;;;;14.99;75.03;98060.00;4965773;28;20047;-63
2021/09/04 06:02:49;;;;;;;8.90;5.13;;;;;;;15.62;73.71;98056.25;4965521;28;20456;-64
2021/09/04 06:05:15;;;;;;;6.85;5.03;;;;;;;15.57;73.75;98051.31;4962594;28;20046;-62
2021/09/04 06:07:40;;;;;;;7.00;4.63;;;;;;;15.29;74.34;98061.75;4961938;28;20121;-61
2021/09/04 06:10:06;;;;;;;6.65;4.90;;;;;;;14.98;76.15;98060.94;4962772;28;20062;-61
2021/09/04 06:12:31;;;;;;;8.63;5.43;;;;;;;14.89;76.69;98058.84;4965795;28;20022;-63
2021/09/04 06:14:57;;;;;;;8.05;5.35;;;;;;;15.14;76.27;98059.09;4955065;28;20038;-62
2021/09/04 06:17:22;;;;;;;8.95;5.85;;;;;;;15.41;75.84;98072.41;4965522;28;20049;-63
2021/09/04 06:19:48;;;;;;;7.90;5.70;;;;;;;15.84;73.85;98057.63;4964129;28;20026;-63
2021/09/04 06:22:13;;;;;;;10.23;5.20;;;;;;;15.53;76.16;98059.44;4961148;28;20094;-62
2021/09/04 06:24:38;;;;;;;7.60;5.10;;;;;;;15.49;76.64;98056.16;4962513;28;20038;-61
2021/09/04 06:27:04;;;;;;;10.10;5.10;;;;;;;15.76;76.15;98055.47;4958352;28;20263;-63
2021/09/04 06:29:29;;;;;;;9.20;5.20;;;;;;;15.74;75.53;98059.97;4967781;28;20026;-64
2021/09/04 06:31:55;;;;;;;7.90;5.28;;;;;;;16.36;73.82;98065.75;4965830;28;20039;-61
2021/09/04 06:34:20;;;;;;;7.75;5.15;;;;;;;16.71;72.44;98067.91;4964340;28;20070;-61
2021/09/04 06:36:46;;;;;;;7.22;4.82;;;;;;;17.49;71.16;98063.66;4964865;28;20051;-63
2021/09/04 06:39:11;;;;;;;8.32;5.40;;;;;;;16.99;71.82;98063.47;4962653;28;20577;-63
2021/09/04 06:41:36;;;;;;;7.15;5.15;;;;;;;17.94;70.42;98069.41;4963228;28;20035;-61
2021/09/04 06:44:02;;;;;;;11.32;5.07;;;;;;;19.41;66.52;98071.03;4967072;28;20030;-61
2021/09/04 06:46:31;;;;;;;7.45;5.07;;;;;;;19.01;65.94;98066.09;4964572;28;20039;-65
2021/09/04 06:48:57;;;;;;;8.60;5.28;;;;;;;20.50;61.48;98061.69;4963253;28;20050;-61
2021/09/04 06:51:22;;;;;;;6.75;4.70;;;;;;;24.74;52.53;98056.78;4961886;28;20039;-61
2021/09/04 06:53:48;;;;;;;7.55;4.90;;;;;;;25.95;48.89;98059.78;4967490;28;20019;-61
2021/09/04 06:56:15;;;;;;;10.02;5.00;;;;;;;27.40;46.50;98065.84;4960959;28;20027;-64
2021/09/04 06:58:40;;;;;;;7.60;4.47;;;;;;;27.94;44.91;98067.13;4966085;28;20080;-61
2021/09/04 07:01:05;;;;;;;6.45;4.57;;;;;;;28.10;43.94;98066.22;4964900;28;20057;-61
2021/09/04 07:03:32;;;;;;;7.97;4.82;;;;;;;30.00;40.46;98062.09;4962522;28;20042;-63
2021/09/04 07:05:57;;;;;;;8.55;4.60;;;;;;;29.59;40.70;98057.09;4960694;28;20078;-62
2021/09/04 07:08:23;;;;;;;8.75;4.85;;;;;;;29.91;40.04;98068.56;4963203;28;20069;-63
2021/09/04 07:10:48;;;;;;;9.48;5.15;;;;;;;30.80;38.25;98065.75;4964972;28;20465;-63
2021/09/04 07:13:14;;;;;;;6.93;4.35;;;;;;;30.57;38.54;98071.31;4961585;28;20106;-65
2021/09/04 07:15:40;;;;;;;6.82;4.75;;;;;;;28.81;41.41;98067.91;4963114;28;20042;-64
2021/09/04 07:18:05;;;;;;;7.88;4.93;;;;;;;28.62;42.12;98069.22;4963093;28;20323;-66
2021/09/04 07:20:31;;;;;;;7.25;4.93;;;;;;;28.69;41.73;98065.81;4961371;28;20070;-64
2021/09/04 07:22:56;;;;;;;6.00;4.50;;;;;;;28.70;41.33;98070.19;4956199;28;20031;-62
2021/09/04 07:25:22;;;;;;;6.15;4.80;;;;;;;29.29;40.09;98062.41;4961339;28;20038;-63
2021/09/04 07:27:47;;;;;;;6.53;4.63;;;;;;;28.71;41.00;98071.84;4960450;28;20031;-65
2021/09/04 07:30:14;;;;;;;9.25;4.70;;;;;;;29.13;41.26;98065.19;4962326;28;20109;-65
2021/09/04 07:32:39;;;;;;;5.72;4.38;;;;;;;29.36;39.82;98070.56;4961852;28;20077;-64
2021/09/04 07:35:05;;;;;;;6.43;4.95;;;;;;;30.61;38.85;98079.84;4959913;28;20019;-66
2021/09/04 07:37:31;;;;;;;5.90;4.20;;;;;;;32.12;36.07;98072.53;4959555;28;20043;-64
2021/09/04 07:39:56;;;;;;;6.72;4.60;;;;;;;31.67;36.92;98080.94;4960544;28;20093;-65
2021/09/04 07:42:21;;;;;;;5.75;4.20;;;;;;;30.66;38.15;98074.72;4961918;28;20121;-66
2021/09/04 07:44:47;;;;;;;5.70;4.35;;;;;;;29.96;39.83;98068.81;4960245;28;20054;-66
2021/09/04 07:47:12;;;;;;;6.90;4.25;;;;;;;32.09;35.89;98072.91;4960984;28;20034;-63
2021/09/04 07:49:38;;;;;;;7.03;4.40;;;;;;;31.55;36.53;98070.88;4961820;28;20031;-63
2021/09/04 07:52:06;;;;;;;6.07;4.50;;;;;;;29.56;39.83;98077.09;4959881;28;20030;-66
2021/09/04 07:54:31;;;;;;;9.77;4.70;;;;;;;31.43;36.33;98075.91;4963216;28;20026;-63
2021/09/04 07:56:57;;;;;;;6.68;4.57;;;;;;;32.12;36.25;98077.91;4962513;28;20038;-66
2021/09/04 07:59:22;;;;;;;6.35;4.05;;;;;;;30.84;37.82;98079.69;4953826;28;20026;-64
2021/09/04 08:01:47;;;;;;;8.23;4.28;;;;;;;30.01;37.84;98079.88;4959323;28;20129;-63
2021/09/04 08:04:14;;;;;;;6.32;3.90;;;;;;;31.76;34.16;98073.53;4959913;28;20031;-66
2021/09/04 08:06:40;;;;;;;5.63;4.28;;;;;;;33.29;33.86;98077.91;4957961;28;20605;-66
2021/09/04 08:09:05;;;;;;;6.80;4.00;;;;;;;32.31;33.91;98080.91;4964213;28;20074;-66
2021/09/04 08:11:30;;;;;;;8.15;3.88;;;;;;;34.32;32.08;98072.84;4959483;28;20114;-65
2021/09/04 08:13:56;;;;;;;5.63;3.83;;;;;;;32.13;34.57;98078.75;4959590;28;20215;-63
2021/09/04 08:16:21;;;;;;;6.53;3.85;;;;;;;30.73;35.74;98079.19;4960526;28;20043;-65
2021/09/04 08:18:46;;;;;;;5.90;4.28;;;;;;;32.21;33.66;98076.72;4960349;28;20034;-65
2021/09/04 08:21:12;;;;;;;6.00;3.83;;;;;;;33.44;32.33;98078.56;4960273;28;20047;-64
2021/09/04 08:23:37;;;;;;;6.90;3.70;;;;;;;34.21;30.42;98076.22;4961429;28;20399;-65
2021/09/04 08:26:03;;;;;;;7.65;3.90;;;;;;;34.20;30.82;98074.53;4961860;28;20074;-65
2021/09/04 08:28:28;;;;;;;6.68;4.10;;;;;;;33.22;32.01;98081.44;4961763;28;20058;-67
2021/09/04 08:30:53;;;;;;;7.65;3.70;;;;;;;33.49;33.59;98078.78;4956875;28;20074;-63
2021/09/04 08:33:19;;;;;;;6.07;3.90;;;;;;;34.22;31.20;98077.84;4959952;28;20039;-64
2021/09/04 08:35:45;;;;;;;6.43;4.00;;;;;;;34.10;32.43;98074.13;4957260;28;20199;-67
2021/09/04 08:38:10;;;;;;;7.45;4.03;;;;;;;34.33;32.37;98071.78;4959729;28;20026;-67
2021/09/04 08:40:43;;;;;;;7.38;3.90;;;;;;;32.54;34.87;98065.25;4957409;28;20046;-63
2021/09/04 08:43:09;;;;;;;8.65;4.00;;;;;;;32.15;34.75;98071.28;4958695;28;20672;-66
2021/09/04 08:45:36;;;;;;;10.52;4.15;;;;;;;32.91;33.78;98067.66;4959302;28;20031;-64
2021/09/04 08:48:02;;;;;;;6.10;3.70;;;;;;;33.07;33.60;98069.97;4957601;28;20027;-67
2021/09/04 08:50:27;;;;;;;6.22;4.03;;;;;;;32.90;33.97;98068.69;4959429;28;20046;-66
2021/09/04 08:52:54;;;;;;;7.57;3.90;;;;;;;32.39;34.62;98068.09;4957816;28;20027;-65
2021/09/04 08:55:20;;;;;;;6.32;3.97;;;;;;;32.58;34.24;98065.69;4962396;28;20035;-65
2021/09/04 08:57:46;;;;;;;5.85;3.72;;;;;;;34.54;32.41;98076.09;4962143;28;20030;-66
2021/09/04 09:00:12;;;;;;;8.10;4.10;;;;;;;33.03;34.51;98072.25;4964145;28;20026;-66
2021/09/04 09:02:37;;;;;;;8.77;4.13;;;;;;;31.64;37.33;98075.91;4961370;28;20034;-66
2021/09/04 09:05:09;;;;;;;6.10;4.07;;;;;;;32.75;34.41;98069.69;4956060;28;20085;-63
2021/09/04 09:07:42;;;;;;;8.27;4.00;;;;;;;33.58;33.15;98066.72;4959137;28;20420;-65
2021/09/04 09:10:29;;;;;;;10.60;3.58;;;;;;;33.84;33.27;98065.03;4956506;28;20022;-66
2021/09/04 09:12:55;;;;;;;6.00;3.88;;;;;;;34.11;32.63;98065.78;4956414;28;20134;-64
2021/09/04 09:15:22;;;;;;;4.75;3.72;;;;;;;30.82;37.14;98069.09;4957725;28;20094;-63
2021/09/04 09:18:11;;;;;;;5.90;3.67;;;;;;;32.93;34.29;98068.28;4959157;28;20026;-64
2021/09/04 09:20:42;;;;;;;6.55;3.72;;;;;;;33.51;32.76;98065.88;4959403;28;20030;-63
2021/09/04 09:23:15;;;;;;;7.35;3.88;;;;;;;34.01;33.75;98064.59;4958530;28;20035;-64
2021/09/04 09:25:42;;;;;;;5.50;3.88;;;;;;;34.06;33.15;98067.47;4959695;28;20117;-63
2021/09/04 09:28:16;;;;;;;8.73;4.00;;;;;;;35.59;30.96;98063.97;4960725;28;20033;-65
2021/09/04 09:30:44;;;;;;;5.60;4.00;;;;;;;32.10;36.50;98060.28;4974661;28;20038;-66
2021/09/04 09:33:12;;;;;;;5.47;3.75;;;;;;;32.97;35.49;98058.72;4956954;28;20085;-65
2021/09/04 09:35:47;;;;;;;6.00;3.92;;;;;;;33.44;33.61;98048.81;4957792;28;20057;-65
2021/09/04 09:38:17;;;;;;;4.85;3.65;;;;;;;33.50;33.75;98047.97;4959064;28;20042;-67
2021/09/04 09:40:44;;;;;;;6.78;3.85;;;;;;;32.58;34.14;98050.31;4959828;28;20039;-64
2021/09/04 09:43:14;;;;;;;6.65;3.90;;;;;;;33.76;32.88;98049.00;4960087;28;20035;-65
2021/09/04 09:45:42;;;;;;;5.55;3.60;;;;;;;33.25;34.01;98044.22;4958508;28;20520;-63
2021/09/04 09:48:08;;;;;;;14.02;7.72;;;;;;;34.53;32.69;98041.09;4959226;28;20105;-63
2021/09/04 09:50:35;;;;;;;12.75;8.57;;;;;;;34.06;32.72;98045.81;4960394;28;20448;-63
2021/09/04 09:53:02;;;;;;;31.80;20.42;;;;;;;33.48;34.55;98033.84;4959511;28;20046;-65
2021/09/04 09:55:27;;;;;;;10.60;7.03;;;;;;;33.62;34.44;98034.66;4956701;28;20043;-66
2021/09/04 09:57:56;;;;;;;7.57;4.53;;;;;;;32.74;33.82;98041.03;4959353;28;20081;-66
2021/09/04 10:00:21;;;;;;;4.85;3.60;;;;;;;33.53;29.81;98030.53;4959575;28;20030;-64
2021/09/04 10:02:48;;;;;;;5.80;3.80;;;;;;;32.78;34.29;98039.56;4956012;28;20253;-71
2021/09/04 10:05:15;;;;;;;5.55;3.45;;;;;;;31.88;34.36;98036.06;4959461;28;20038;-67
2021/09/04 10:07:41;;;;;;;5.18;3.60;;;;;;;33.09;31.76;98030.06;4959649;28;20026;-65
2021/09/04 10:10:07;;;;;;;5.65;4.00;;;;;;;30.87;35.08;98031.66;4956170;28;20053;-64
2021/09/04 10:12:32;;;;;;;5.63;3.58;;;;;;;32.07;32.33;98032.66;4956117;28;20023;-63
2021/09/04 10:14:58;;;;;;;8.82;3.90;;;;;;;32.99;31.18;98024.22;4958222;28;20030;-64
2021/09/04 10:17:25;;;;;;;7.55;4.13;;;;;;;30.34;35.23;98036.47;4962201;28;20067;-62
2021/09/04 10:19:50;;;;;;;5.25;3.83;;;;;;;30.88;34.84;98022.56;4956793;28;20057;-62
2021/09/04 10:22:16;;;;;;;9.07;3.95;;;;;;;31.84;33.66;98026.69;4958905;28;20432;-61
2021/09/04 10:24:47;;;;;;;5.28;3.58;;;;;;;31.76;32.85;98029.53;4960587;28;20034;-61
2021/09/04 10:27:15;;;;;;;4.53;3.70;;;;;;;32.11;32.10;98032.25;4959388;28;20051;-62
2021/09/04 10:29:41;;;;;;;5.40;3.38;;;;;;;33.15;28.89;98029.25;4960247;28;20538;-62
2021/09/04 10:32:07;;;;;;;5.68;3.50;;;;;;;33.44;29.43;98019.09;4957639;28;20428;-64
2021/09/04 10:34:37;;;;;;;6.35;3.60;;;;;;;33.86;28.69;98024.22;4958514;28;20066;-65
2021/09/04 10:37:15;;;;;;;4.87;3.53;;;;;;;30.81;31.95;98031.63;4957155;28;20034;-62
2021/09/04 10:40:07;;;;;;;6.35;3.60;;;;;;;32.80;30.49;98021.28;4957970;28;20023;-66
2021/09/04 10:42:53;;;;;;;6.72;3.45;;;;;;;31.45;34.39;98017.25;4950730;28;20483;-63
2021/09/04 10:45:18;;;;;;;6.85;3.60;;;;;;;32.18;30.81;98014.22;4941629;28;20094;-65
2021/09/04 10:47:56;;;;;;;5.15;3.60;;;;;;;31.37;31.76;98020.13;4956542;28;20159;-64
2021/09/04 10:50:26;;;;;;;6.05;3.55;;;;;;;31.81;32.44;98019.00;4958817;28;20257;-62
2021/09/04 10:53:04;;;;;;;4.60;3.63;;;;;;;31.65;31.78;98015.59;4959310;28;20038;-60
2021/09/04 10:55:42;;;;;;;4.40;3.35;;;;;;;31.36;32.39;98007.66;4955617;28;20027;-63
2021/09/04 10:58:16;;;;;;;5.30;3.75;;;;;;;30.12;36.60;98004.09;4963130;28;20026;-65
2021/09/04 11:00:50;;;;;;;4.75;3.42;;;;;;;32.60;30.40;98005.03;4959468;28;20031;-61
2021/09/04 11:03:23;;;;;;;4.82;3.90;;;;;;;32.89;31.57;98007.63;4956653;28;20033;-66
2021/09/04 11:05:56;;;;;;;5.03;3.65;;;;;;;29.87;33.76;98013.47;4955415;28;20485;-64
2021/09/04 11:08:38;;;;;;;5.60;3.72;;;;;;;30.16;33.52;98013.47;4958588;28;20114;-64
2021/09/04 11:11:14;;;;;;;;;;;;;;;31.37;32.25;98007.47;4957392;28;20041;-66
2021/09/04 11:13:44;;;;;;;5.68;3.70;;;;;;;30.62;33.50;98006.13;4959120;28;20402;-65
2021/09/04 11:16:27;;;;;;;5.20;3.63;;;;;;;31.79;32.27;97999.50;4958205;28;20053;-60
2021/09/04 11:18:55;;;;;;;6.47;3.63;;;;;;;31.07;32.27;98009.53;4957936;28;20022;-66
2021/09/04 11:21:20;;;;;;;6.55;3.60;;;;;;;31.72;31.65;98007.53;4958534;28;20061;-63
2021/09/04 11:23:47;;;;;;;5.78;3.50;;;;;;;31.77;31.61;98004.25;4958763;28;20030;-63
2021/09/04 11:26:12;;;;;;;5.63;3.50;;;;;;;32.06;31.10;97993.22;4957172;28;20035;-62
2021/09/04 11:28:38;;;;;;;6.32;3.67;;;;;;;32.12;30.68;97988.06;4957152;28;20027;-65